sensor_id;sensor_type;location;lat;lon;timestamp;pressure;altitude;pressure_sealevel;temperature;humidity
67015;BME280;1033;52.560;13.374;2023-08-21T00:02:20;101619.72;;;21.19;100.00
67015;BME280;1033;52.560;13.374;2023-08-21T00:04:51;101615.13;;;21.08;100.00
67015;BME280;1033;52.560;13.374;2023-08-21T00:07:20;101601.81;;;21.00;100.00
67015;BME280;1033;52.560;13.374;2023-08-21T00:09:50;101601.16;;;20.93;100.00
67015;BME280;1033;52.560;13.374;2023-08-21T00:12:19;101605.81;;;20.93;100.00
67015;BME280;1033;52.560;13.374;2023-08-21T00:14:48;101609.31;;;21.05;100.00
67015;BME280;1033;52.560;13.374;2023-08-21T00:17:18;101610.63;;;21.02;100.00
67015;BME280;1033;52.560;13.374;2023-08-21T00:19:47;101605.66;;;20.99;100.00
67015;BME280;1033;52.560;13.374;2023-08-21T00:22:18;101607.25;;;20.95;100.00
67015;BME280;1033;52.560;13.374;2023-08-21T00:24:48;101605.81;;;20.93;100.00
67015;BME280;1033;52.560;13.374;2023-08-21T00:27:17;101602.16;;;20.87;100.00
67015;BME280;1033;52.560;13.374;2023-08-21T00:29:47;101603.28;;;20.86;100.00
67015;BME280;1033;52.560;13.374;2023-08-21T00:32:18;101601.53;;;20.80;100.00
67015;BME280;1033;52.560;13.374;2023-08-21T00:34:48;101600.84;;;20.73;100.00
67015;BME280;1033;52.560;13.374;2023-08-21T00:37:20;101607.50;;;20.77;100.00
67015;BME280;1033;52.560;13.374;2023-08-21T00:39:50;101613.53;;;20.74;100.00
67015;BME280;1033;52.560;13.374;2023-08-21T00:42:19;101608.69;;;20.81;100.00
67015;BME280;1033;52.560;13.374;2023-08-21T00:44:49;101604.84;;;20.82;100.00
67015;BME280;1033;52.560;13.374;2023-08-21T00:47:19;101613.00;;;20.77;100.00
67015;BME280;1033;52.560;13.374;2023-08-21T00:49:48;101611.28;;;20.71;100.00
67015;BME280;1033;52.560;13.374;2023-08-21T00:52:19;101606.88;;;20.70;100.00
67015;BME280;1033;52.560;13.374;2023-08-21T00:54:50;101610.84;;;20.79;100.00
67015;BME280;1033;52.560;13.374;2023-08-21T00:57:23;101616.88;;;20.76;100.00
67015;BME280;1033;52.560;13.374;2023-08-21T00:59:53;101606.94;;;20.75;100.00
67015;BME280;1033;52.560;13.374;2023-08-21T01:02:23;101608.63;;;20.76;100.00
67015;BME280;1033;52.560;13.374;2023-08-21T01:04:52;101620.69;;;20.75;100.00
67015;BME280;1033;52.560;13.374;2023-08-21T01:07:24;101606.88;;;20.70;100.00
67015;BME280;1033;52.560;13.374;2023-08-21T01:09:58;101604.72;;;20.72;100.00
67015;BME280;1033;52.560;13.374;2023-08-21T01:12:35;101600.69;;;20.79;100.00
67015;BME280;1033;52.560;13.374;2023-08-21T01:15:07;101614.66;;;20.95;100.00
67015;BME280;1033;52.560;13.374;2023-08-21T01:17:38;101611.47;;;21.03;100.00
67015;BME280;1033;52.560;13.374;2023-08-21T01:20:09;101608.47;;;21.04;100.00
67015;BME280;1033;52.560;13.374;2023-08-21T01:22:42;101604.97;;;20.92;100.00
67015;BME280;1033;52.560;13.374;2023-08-21T01:25:15;101606.66;;;20.93;100.00
67015;BME280;1033;52.560;13.374;2023-08-21T01:27:47;101612.31;;;21.03;100.00
67015;BME280;1033;52.560;13.374;2023-08-21T01:30:17;101604.50;;;20.95;100.00
67015;BME280;1033;52.560;13.374;2023-08-21T01:32:53;101605.88;;;20.98;100.00
67015;BME280;1033;52.560;13.374;2023-08-21T01:35:29;101600.13;;;20.99;100.00
67015;BME280;1033;52.560;13.374;2023-08-21T01:37:59;101595.44;;;21.16;100.00
67015;BME280;1033;52.560;13.374;2023-08-21T01:40:31;101603.13;;;21.14;100.00
67015;BME280;1033;52.560;13.374;2023-08-21T01:43:01;101588.66;;;21.46;100.00
67015;BME280;1033;52.560;13.374;2023-08-21T01:45:30;101594.50;;;21.49;100.00
67015;BME280;1033;52.560;13.374;2023-08-21T01:48:00;101587.44;;;21.37;100.00
67015;BME280;1033;52.560;13.374;2023-08-21T01:50:30;101572.34;;;21.39;100.00
67015;BME280;1033;52.560;13.374;2023-08-21T01:53:00;101566.69;;;21.51;100.00
67015;BME280;1033;52.560;13.374;2023-08-21T01:55:32;101580.13;;;21.74;99.82
67015;BME280;1033;52.560;13.374;2023-08-21T01:58:01;101584.63;;;21.80;98.68
67015;BME280;1033;52.560;13.374;2023-08-21T02:00:31;101590.91;;;21.76;99.11
67015;BME280;1033;52.560;13.374;2023-08-21T02:03:00;101588.88;;;21.66;99.47
67015;BME280;1033;52.560;13.374;2023-08-21T02:05:30;101581.09;;;21.58;100.00
67015;BME280;1033;52.560;13.374;2023-08-21T02:08:00;101578.16;;;21.69;99.68
67015;BME280;1033;52.560;13.374;2023-08-21T02:10:30;101586.09;;;21.88;98.13
67015;BME280;1033;52.560;13.374;2023-08-21T02:13:00;101586.25;;;21.76;98.22
67015;BME280;1033;52.560;13.374;2023-08-21T02:15:29;101585.75;;;21.84;97.45
67015;BME280;1033;52.560;13.374;2023-08-21T02:17:59;101584.56;;;21.75;98.12
67015;BME280;1033;52.560;13.374;2023-08-21T02:20:29;101582.03;;;21.68;97.99
67015;BME280;1033;52.560;13.374;2023-08-21T02:22:58;101583.47;;;21.76;97.24
67015;BME280;1033;52.560;13.374;2023-08-21T02:25:31;101581.69;;;21.65;97.68
67015;BME280;1033;52.560;13.374;2023-08-21T02:28:04;101582.19;;;21.57;97.10
67015;BME280;1033;52.560;13.374;2023-08-21T02:30:35;101583.78;;;21.53;97.67
67015;BME280;1033;52.560;13.374;2023-08-21T02:33:04;101585.66;;;21.47;96.96
67015;BME280;1033;52.560;13.374;2023-08-21T02:35:33;101587.78;;;21.67;97.72
67015;BME280;1033;52.560;13.374;2023-08-21T02:38:03;101587.31;;;21.75;96.56
67015;BME280;1033;52.560;13.374;2023-08-21T02:40:37;101586.13;;;21.66;95.53
67015;BME280;1033;52.560;13.374;2023-08-21T02:43:06;101588.16;;;21.76;95.32
67015;BME280;1033;52.560;13.374;2023-08-21T02:45:35;101587.97;;;21.82;93.10
67015;BME280;1033;52.560;13.374;2023-08-21T02:48:05;101587.84;;;21.72;93.96
67015;BME280;1033;52.560;13.374;2023-08-21T02:50:35;101584.00;;;21.73;92.94
67015;BME280;1033;52.560;13.374;2023-08-21T02:53:05;101590.75;;;22.14;92.47
67015;BME280;1033;52.560;13.374;2023-08-21T02:55:36;101588.06;;;21.92;90.33
67015;BME280;1033;52.560;13.374;2023-08-21T02:58:05;101589.09;;;21.86;90.37
67015;BME280;1033;52.560;13.374;2023-08-21T03:00:35;101593.16;;;22.05;90.30
67015;BME280;1033;52.560;13.374;2023-08-21T03:03:04;101587.97;;;21.82;90.42
67015;BME280;1033;52.560;13.374;2023-08-21T03:05:34;101589.63;;;21.83;89.00
67015;BME280;1033;52.560;13.374;2023-08-21T03:08:04;101585.81;;;21.89;89.41
67015;BME280;1033;52.560;13.374;2023-08-21T03:10:33;101584.03;;;22.00;88.99
67015;BME280;1033;52.560;13.374;2023-08-21T03:13:06;101585.81;;;21.89;89.89
67015;BME280;1033;52.560;13.374;2023-08-21T03:15:35;101593.47;;;21.82;90.58
67015;BME280;1033;52.560;13.374;2023-08-21T03:18:06;101590.56;;;21.94;90.79
67015;BME280;1033;52.560;13.374;2023-08-21T03:20:35;101587.56;;;21.95;91.14
67015;BME280;1033;52.560;13.374;2023-08-21T03:23:05;101576.47;;;21.90;90.38
67015;BME280;1033;52.560;13.374;2023-08-21T03:25:34;101571.69;;;21.81;91.01
67015;BME280;1033;52.560;13.374;2023-08-21T03:28:05;101578.41;;;22.17;90.27
67015;BME280;1033;52.560;13.374;2023-08-21T03:30:35;101574.88;;;21.94;88.83
67015;BME280;1033;52.560;13.374;2023-08-21T03:33:07;101580.31;;;21.89;89.88
67015;BME280;1033;52.560;13.374;2023-08-21T03:35:38;101567.91;;;22.19;88.81
67015;BME280;1033;52.560;13.374;2023-08-21T03:38:08;101569.25;;;22.11;88.20
67015;BME280;1033;52.560;13.374;2023-08-21T03:40:44;101572.03;;;21.89;88.04
67015;BME280;1033;52.560;13.374;2023-08-21T03:43:15;101570.69;;;22.19;87.93
67015;BME280;1033;52.560;13.374;2023-08-21T03:45:44;101571.72;;;22.13;88.70
67015;BME280;1033;52.560;13.374;2023-08-21T03:48:14;101574.47;;;22.13;88.58
67015;BME280;1033;52.560;13.374;2023-08-21T03:50:43;101584.56;;;21.97;88.67
67015;BME280;1033;52.560;13.374;2023-08-21T03:53:13;101584.06;;;21.78;90.14
67015;BME280;1033;52.560;13.374;2023-08-21T03:55:43;101585.09;;;21.72;90.93
67015;BME280;1033;52.560;13.374;2023-08-21T03:58:14;101591.22;;;21.79;90.20
67015;BME280;1033;52.560;13.374;2023-08-21T04:00:44;101591.69;;;21.71;89.54
67015;BME280;1033;52.560;13.374;2023-08-21T04:03:32;101590.66;;;21.77;91.23
67015;BME280;1033;52.560;13.374;2023-08-21T04:06:03;101592.94;;;21.85;90.37
67015;BME280;1033;52.560;13.374;2023-08-21T04:08:34;101595.69;;;22.07;90.03
67015;BME280;1033;52.560;13.374;2023-08-21T04:11:04;101589.72;;;21.93;89.44
67015;BME280;1033;52.560;13.374;2023-08-21T04:13:35;101598.94;;;21.77;89.65
67015;BME280;1033;52.560;13.374;2023-08-21T04:16:09;101606.66;;;21.80;89.56
67015;BME280;1033;52.560;13.374;2023-08-21T04:18:41;101606.44;;;21.60;90.24
67015;BME280;1033;52.560;13.374;2023-08-21T04:21:10;101610.44;;;21.96;88.30
67015;BME280;1033;52.560;13.374;2023-08-21T04:23:40;101607.50;;;22.07;86.80
67015;BME280;1033;52.560;13.374;2023-08-21T04:26:09;101613.91;;;21.86;88.47
67015;BME280;1033;52.560;13.374;2023-08-21T04:28:40;101599.91;;;21.66;89.26
67015;BME280;1033;52.560;13.374;2023-08-21T04:31:10;101610.25;;;21.81;89.97
67015;BME280;1033;52.560;13.374;2023-08-21T04:33:39;101621.78;;;21.99;86.18
67015;BME280;1033;52.560;13.374;2023-08-21T04:36:15;101621.56;;;22.06;86.30
67015;BME280;1033;52.560;13.374;2023-08-21T04:38:48;101621.44;;;22.23;87.69
67015;BME280;1033;52.560;13.374;2023-08-21T04:41:17;101629.44;;;22.24;87.28
67015;BME280;1033;52.560;13.374;2023-08-21T04:43:48;101626.53;;;22.36;87.05
67015;BME280;1033;52.560;13.374;2023-08-21T04:46:18;101628.41;;;22.67;85.80
67015;BME280;1033;52.560;13.374;2023-08-21T04:48:49;101620.00;;;22.79;84.55
67015;BME280;1033;52.560;13.374;2023-08-21T04:51:19;101628.38;;;22.94;83.41
67015;BME280;1033;52.560;13.374;2023-08-21T04:53:50;101625.88;;;22.92;83.48
67015;BME280;1033;52.560;13.374;2023-08-21T04:56:22;101631.97;;;22.94;83.67
67015;BME280;1033;52.560;13.374;2023-08-21T04:58:55;101639.13;;;22.95;84.07
67015;BME280;1033;52.560;13.374;2023-08-21T05:01:28;101640.22;;;22.89;84.99
67015;BME280;1033;52.560;13.374;2023-08-21T05:04:00;101641.34;;;22.93;85.55
67015;BME280;1033;52.560;13.374;2023-08-21T05:06:31;101642.81;;;23.63;82.12
67015;BME280;1033;52.560;13.374;2023-08-21T05:09:03;101636.69;;;23.46;82.43
67015;BME280;1033;52.560;13.374;2023-08-21T05:11:33;101643.91;;;23.67;82.14
67015;BME280;1033;52.560;13.374;2023-08-21T05:14:07;101655.16;;;24.38;79.09
67015;BME280;1033;52.560;13.374;2023-08-21T05:16:38;101643.53;;;24.97;75.66
67015;BME280;1033;52.560;13.374;2023-08-21T05:19:08;101648.22;;;25.01;74.52
67015;BME280;1033;52.560;13.374;2023-08-21T05:21:38;101647.13;;;24.57;76.64
67015;BME280;1033;52.560;13.374;2023-08-21T05:24:08;101645.44;;;24.15;79.27
67015;BME280;1033;52.560;13.374;2023-08-21T05:26:43;101639.03;;;23.90;80.42
67015;BME280;1033;52.560;13.374;2023-08-21T05:29:15;101636.47;;;23.68;81.54
67015;BME280;1033;52.560;13.374;2023-08-21T05:31:44;101635.66;;;23.72;82.34
67015;BME280;1033;52.560;13.374;2023-08-21T05:34:14;101643.47;;;24.01;81.39
67015;BME280;1033;52.560;13.374;2023-08-21T05:36:54;101634.63;;;24.09;80.57
67015;BME280;1033;52.560;13.374;2023-08-21T05:44:24;101630.81;;;24.40;78.32
67015;BME280;1033;52.560;13.374;2023-08-21T05:47:29;101640.25;;;24.49;77.90
67015;BME280;1033;52.560;13.374;2023-08-21T05:50:36;101639.09;;;24.45;77.25
67015;BME280;1033;52.560;13.374;2023-08-21T05:53:10;101645.19;;;24.57;76.66
67015;BME280;1033;52.560;13.374;2023-08-21T05:55:40;101647.41;;;24.55;76.91
67015;BME280;1033;52.560;13.374;2023-08-21T05:58:12;101649.06;;;24.41;76.82
67015;BME280;1033;52.560;13.374;2023-08-21T06:00:44;101649.63;;;24.68;75.53
67015;BME280;1033;52.560;13.374;2023-08-21T06:03:14;101649.06;;;24.77;74.96
67015;BME280;1033;52.560;13.374;2023-08-21T06:06:01;101648.22;;;24.71;75.32
67015;BME280;1033;52.560;13.374;2023-08-21T06:08:31;101657.94;;;24.58;75.97
67015;BME280;1033;52.560;13.374;2023-08-21T06:11:01;101657.09;;;24.58;76.56
67015;BME280;1033;52.560;13.374;2023-08-21T06:13:31;101665.13;;;24.44;76.55
67015;BME280;1033;52.560;13.374;2023-08-21T06:16:03;101661.22;;;24.35;77.37
67015;BME280;1033;52.560;13.374;2023-08-21T06:18:36;101662.38;;;24.49;77.79
67015;BME280;1033;52.560;13.374;2023-08-21T06:21:05;101659.03;;;24.78;75.75
67015;BME280;1033;52.560;13.374;2023-08-21T06:23:35;101668.47;;;24.87;74.76
67015;BME280;1033;52.560;13.374;2023-08-21T06:26:05;101667.34;;;24.93;74.42
67015;BME280;1033;52.560;13.374;2023-08-21T06:28:34;101674.84;;;24.87;74.43
67015;BME280;1033;52.560;13.374;2023-08-21T06:31:08;101674.00;;;24.87;74.99
67015;BME280;1033;52.560;13.374;2023-08-21T06:33:38;101676.13;;;25.25;73.89
67015;BME280;1033;52.560;13.374;2023-08-21T06:36:07;101675.59;;;25.08;73.90
67015;BME280;1033;52.560;13.374;2023-08-21T06:38:37;101671.75;;;25.04;74.21
67015;BME280;1033;52.560;13.374;2023-08-21T06:41:07;101679.75;;;25.16;74.09
67015;BME280;1033;52.560;13.374;2023-08-21T06:43:43;101682.28;;;25.12;73.58
67015;BME280;1033;52.560;13.374;2023-08-21T06:46:24;101683.91;;;25.03;75.10
67015;BME280;1033;52.560;13.374;2023-08-21T06:49:20;101686.16;;;25.11;74.79
67015;BME280;1033;52.560;13.374;2023-08-21T07:10:48;101673.16;;;25.81;68.37
67015;BME280;1033;52.560;13.374;2023-08-21T08:11:54;101714.38;;;25.18;59.28
67015;BME280;1033;52.560;13.374;2023-08-21T08:14:48;101712.72;;;25.17;60.80
67015;BME280;1033;52.560;13.374;2023-08-21T08:18:35;101714.34;;;25.23;60.05
67015;BME280;1033;52.560;13.374;2023-08-21T08:21:28;101707.72;;;25.24;59.92
67015;BME280;1033;52.560;13.374;2023-08-21T08:23:59;101710.50;;;25.14;57.54
67015;BME280;1033;52.560;13.374;2023-08-21T08:26:29;101715.72;;;25.36;54.95
67015;BME280;1033;52.560;13.374;2023-08-21T08:29:17;101708.19;;;25.51;51.80
67015;BME280;1033;52.560;13.374;2023-08-21T08:31:48;101716.50;;;25.51;50.62
67015;BME280;1033;52.560;13.374;2023-08-21T08:34:58;101721.50;;;25.60;50.31
67015;BME280;1033;52.560;13.374;2023-08-21T09:56:46;101705.41;;;27.22;41.07
67015;BME280;1033;52.560;13.374;2023-08-21T09:59:18;101707.91;;;26.95;42.08
67015;BME280;1033;52.560;13.374;2023-08-21T10:01:50;101698.66;;;27.05;42.73
67015;BME280;1033;52.560;13.374;2023-08-21T10:04:23;101699.03;;;26.59;43.15
67015;BME280;1033;52.560;13.374;2023-08-21T10:06:56;101689.31;;;26.62;44.16
67015;BME280;1033;52.560;13.374;2023-08-21T10:09:27;101705.28;;;27.09;43.55
67015;BME280;1033;52.560;13.374;2023-08-21T10:12:00;101695.53;;;27.64;42.82
67015;BME280;1033;52.560;13.374;2023-08-21T10:14:30;101694.44;;;27.60;42.40
67015;BME280;1033;52.560;13.374;2023-08-21T10:17:00;101697.50;;;27.35;42.89
67015;BME280;1033;52.560;13.374;2023-08-21T10:19:34;101697.28;;;27.55;42.45
67015;BME280;1033;52.560;13.374;2023-08-21T10:22:04;101695.94;;;27.95;41.94
67015;BME280;1033;52.560;13.374;2023-08-21T10:24:36;101694.97;;;28.04;41.39
67015;BME280;1033;52.560;13.374;2023-08-21T10:27:08;101693.97;;;27.95;40.80
67015;BME280;1033;52.560;13.374;2023-08-21T10:29:39;101696.16;;;27.98;40.47
67015;BME280;1033;52.560;13.374;2023-08-21T10:32:09;101690.41;;;28.32;40.51
67015;BME280;1033;52.560;13.374;2023-08-21T10:34:39;101701.78;;;28.36;39.82
67015;BME280;1033;52.560;13.374;2023-08-21T10:37:20;101698.09;;;28.40;40.61
67015;BME280;1033;52.560;13.374;2023-08-21T10:39:56;101696.38;;;28.26;41.27
67015;BME280;1033;52.560;13.374;2023-08-21T10:42:41;101696.72;;;27.58;41.72
67015;BME280;1033;52.560;13.374;2023-08-21T10:45:12;101697.13;;;27.89;40.83
67015;BME280;1033;52.560;13.374;2023-08-21T10:47:43;101700.34;;;27.77;40.43
67015;BME280;1033;52.560;13.374;2023-08-21T10:50:15;101703.13;;;27.77;40.92
67015;BME280;1033;52.560;13.374;2023-08-21T10:52:45;101697.44;;;27.87;40.76
67015;BME280;1033;52.560;13.374;2023-08-21T10:55:16;101710.00;;;27.61;40.77
67015;BME280;1033;52.560;13.374;2023-08-21T10:57:50;101704.06;;;27.49;40.92
67015;BME280;1033;52.560;13.374;2023-08-21T11:00:20;101697.72;;;27.86;40.69
67015;BME280;1033;52.560;13.374;2023-08-21T11:02:50;101704.63;;;28.31;40.57
67015;BME280;1033;52.560;13.374;2023-08-21T11:05:20;101707.69;;;28.48;40.27
67015;BME280;1033;52.560;13.374;2023-08-21T11:07:51;101703.16;;;28.71;39.21
67015;BME280;1033;52.560;13.374;2023-08-21T11:10:23;101705.69;;;28.86;38.81
67015;BME280;1033;52.560;13.374;2023-08-21T11:12:55;101708.63;;;28.94;39.23
67015;BME280;1033;52.560;13.374;2023-08-21T11:15:26;101702.88;;;28.72;39.25
67015;BME280;1033;52.560;13.374;2023-08-21T11:17:58;101702.59;;;28.36;39.28
67015;BME280;1033;52.560;13.374;2023-08-21T11:20:32;101708.41;;;28.21;40.32
67015;BME280;1033;52.560;13.374;2023-08-21T11:23:04;101702.06;;;28.16;40.97
67015;BME280;1033;52.560;13.374;2023-08-21T11:25:39;101698.06;;;28.03;40.41
67015;BME280;1033;52.560;13.374;2023-08-21T11:28:13;101702.81;;;28.02;40.52
67015;BME280;1033;52.560;13.374;2023-08-21T11:30:48;101699.31;;;28.67;39.72
67015;BME280;1033;52.560;13.374;2023-08-21T11:33:18;101702.63;;;28.69;39.53
67015;BME280;1033;52.560;13.374;2023-08-21T11:35:48;101700.97;;;28.68;39.39
67015;BME280;1033;52.560;13.374;2023-08-21T11:38:21;101696.56;;;28.29;39.63
67015;BME280;1033;52.560;13.374;2023-08-21T11:41:09;101705.41;;;28.87;39.27
67015;BME280;1033;52.560;13.374;2023-08-21T11:43:41;101700.59;;;29.07;39.07
67015;BME280;1033;52.560;13.374;2023-08-21T11:46:12;101696.75;;;28.89;38.55
67015;BME280;1033;52.560;13.374;2023-08-21T11:48:43;101698.34;;;29.22;38.31
67015;BME280;1033;52.560;13.374;2023-08-21T11:51:14;101695.34;;;28.73;38.45
67015;BME280;1033;52.560;13.374;2023-08-21T11:57:54;101695.69;;;28.66;38.60
67015;BME280;1033;52.560;13.374;2023-08-21T12:00:29;101693.78;;;28.48;38.96
67015;BME280;1033;52.560;13.374;2023-08-21T12:03:00;101699.72;;;28.92;38.73
67015;BME280;1033;52.560;13.374;2023-08-21T12:06:44;101690.72;;;29.14;38.91
67015;BME280;1033;52.560;13.374;2023-08-21T12:09:45;101693.44;;;28.68;39.56
67015;BME280;1033;52.560;13.374;2023-08-21T12:12:16;101689.91;;;28.63;40.23
67015;BME280;1033;52.560;13.374;2023-08-21T12:14:46;101697.72;;;29.12;40.54
67015;BME280;1033;52.560;13.374;2023-08-21T12:17:18;101695.38;;;28.86;39.53
67015;BME280;1033;52.560;13.374;2023-08-21T12:20:03;101701.50;;;28.70;40.44
67015;BME280;1033;52.560;13.374;2023-08-21T12:22:39;101695.16;;;28.83;39.87
67015;BME280;1033;52.560;13.374;2023-08-21T12:25:59;101683.78;;;28.28;40.85
67015;BME280;1033;52.560;13.374;2023-08-21T12:28:31;101683.22;;;28.13;40.94
67015;BME280;1033;52.560;13.374;2023-08-21T12:31:01;101680.88;;;27.77;41.61
67015;BME280;1033;52.560;13.374;2023-08-21T12:33:32;101678.75;;;28.30;41.17
67015;BME280;1033;52.560;13.374;2023-08-21T12:36:02;101685.63;;;29.03;40.65
67015;BME280;1033;52.560;13.374;2023-08-21T12:38:32;101685.72;;;28.98;40.40
67015;BME280;1033;52.560;13.374;2023-08-21T12:41:02;101681.63;;;29.09;39.80
67015;BME280;1033;52.560;13.374;2023-08-21T12:43:32;101685.16;;;29.42;38.49
67015;BME280;1033;52.560;13.374;2023-08-21T12:46:01;101687.31;;;29.58;37.03
67015;BME280;1033;52.560;13.374;2023-08-21T12:57:35;101692.94;;;28.47;36.32
67015;BME280;1033;52.560;13.374;2023-08-21T13:19:33;101690.94;;;28.16;38.47
67015;BME280;1033;52.560;13.374;2023-08-21T13:27:20;101690.44;;;28.08;38.44
67015;BME280;1033;52.560;13.374;2023-08-21T13:31:38;101688.66;;;28.55;37.87
67015;BME280;1033;52.560;13.374;2023-08-21T13:42:53;101677.34;;;28.65;37.78
67015;BME280;1033;52.560;13.374;2023-08-21T13:46:31;101665.34;;;28.51;38.46
67015;BME280;1033;52.560;13.374;2023-08-21T13:54:13;101666.06;;;28.75;37.51
67015;BME280;1033;52.560;13.374;2023-08-21T14:02:12;101652.25;;;27.95;39.27
67015;BME280;1033;52.560;13.374;2023-08-21T15:08:54;101634.38;;;27.83;36.11
67015;BME280;1033;52.560;13.374;2023-08-21T15:12:37;101627.97;;;28.01;35.85
67015;BME280;1033;52.560;13.374;2023-08-21T15:15:52;101625.88;;;28.30;36.65
67015;BME280;1033;52.560;13.374;2023-08-21T15:19:17;101623.03;;;28.49;36.33
67015;BME280;1033;52.560;13.374;2023-08-21T15:23:00;101618.81;;;28.51;37.14
67015;BME280;1033;52.560;13.374;2023-08-21T15:25:46;101620.81;;;28.65;36.11
67015;BME280;1033;52.560;13.374;2023-08-21T15:28:58;101623.00;;;28.35;36.61
67015;BME280;1033;52.560;13.374;2023-08-21T15:32:22;101617.69;;;28.01;37.67
67015;BME280;1033;52.560;13.374;2023-08-21T15:35:02;101621.72;;;27.90;37.18
67015;BME280;1033;52.560;13.374;2023-08-21T15:38:00;101617.69;;;27.64;37.92
67015;BME280;1033;52.560;13.374;2023-08-21T15:41:22;101608.56;;;27.77;38.19
67015;BME280;1033;52.560;13.374;2023-08-21T15:44:49;101611.06;;;27.97;37.61
67015;BME280;1033;52.560;13.374;2023-08-21T15:48:03;101598.22;;;27.83;38.14
67015;BME280;1033;52.560;13.374;2023-08-21T15:50:41;101612.47;;;27.57;38.71
67015;BME280;1033;52.560;13.374;2023-08-21T16:50:01;101578.72;;;28.01;38.68
67015;BME280;1033;52.560;13.374;2023-08-21T16:52:48;101586.03;;;28.16;38.03
67015;BME280;1033;52.560;13.374;2023-08-21T16:55:22;101595.63;;;28.24;38.24
67015;BME280;1033;52.560;13.374;2023-08-21T16:58:07;101582.34;;;28.02;38.94
67015;BME280;1033;52.560;13.374;2023-08-21T17:00:47;101578.59;;;28.12;38.68
67015;BME280;1033;52.560;13.374;2023-08-21T17:03:29;101578.34;;;28.27;38.55
67015;BME280;1033;52.560;13.374;2023-08-21T17:06:26;101585.03;;;28.26;38.49
67015;BME280;1033;52.560;13.374;2023-08-21T17:09:11;101591.81;;;28.20;38.10
67015;BME280;1033;52.560;13.374;2023-08-21T17:40:40;101557.84;;;25.26;44.76
67015;BME280;1033;52.560;13.374;2023-08-21T17:49:47;101567.69;;;24.93;45.48
67015;BME280;1033;52.560;13.374;2023-08-21T17:54:22;101566.31;;;24.70;46.37
67015;BME280;1033;52.560;13.374;2023-08-21T22:23:00;101591.50;;;20.24;66.84
67015;BME280;1033;52.560;13.374;2023-08-21T22:26:00;101587.03;;;20.18;66.98
67015;BME280;1033;52.560;13.374;2023-08-21T22:49:41;101599.13;;;20.33;68.91
67015;BME280;1033;52.560;13.374;2023-08-21T23:02:45;101588.13;;;20.33;69.91
67015;BME280;1033;52.560;13.374;2023-08-21T23:22:01;101574.91;;;20.30;70.71
67015;BME280;1033;52.560;13.374;2023-08-21T23:25:41;101575.38;;;20.27;70.92
67015;BME280;1033;52.560;13.374;2023-08-21T23:28:55;101582.19;;;20.25;71.07
67015;BME280;1033;52.560;13.374;2023-08-21T23:32:20;101569.53;;;20.24;71.62
67015;BME280;1033;52.560;13.374;2023-08-21T23:35:47;101573.59;;;20.33;71.65
67015;BME280;1033;52.560;13.374;2023-08-21T23:38:25;101573.38;;;20.23;72.16
67015;BME280;1033;52.560;13.374;2023-08-21T23:41:15;101574.13;;;20.18;72.46
67015;BME280;1033;52.560;13.374;2023-08-21T23:44:23;101572.94;;;20.14;73.20
67015;BME280;1033;52.560;13.374;2023-08-21T23:47:01;101568.13;;;20.21;72.92
67015;BME280;1033;52.560;13.374;2023-08-21T23:50:09;101570.28;;;20.19;73.14
67015;BME280;1033;52.560;13.374;2023-08-21T23:52:43;101571.94;;;20.20;73.60
67015;BME280;1033;52.560;13.374;2023-08-21T23:55:54;101572.22;;;20.35;74.31
67015;BME280;1033;52.560;13.374;2023-08-21T23:58:37;101575.84;;;20.24;73.73
